sensor_id;sensor_type;location;lat;lon;timestamp;P1;durP1;ratioP1;P2;durP2;ratioP2
77602;SDS011;66771;52.434;17.056;2023-04-25T00:02:12;2.40;;;2.00;;
77602;SDS011;66771;52.434;17.056;2023-04-25T00:04:40;2.80;;;2.20;;
77602;SDS011;66771;52.434;17.056;2023-04-25T00:07:10;4.00;;;2.10;;
77602;SDS011;66771;52.434;17.056;2023-04-25T00:09:37;3.40;;;2.10;;
77602;SDS011;66771;52.434;17.056;2023-04-25T00:12:07;2.00;;;1.50;;
77602;SDS011;66771;52.434;17.056;2023-04-25T00:14:37;1.80;;;1.70;;
77602;SDS011;66771;52.434;17.056;2023-04-25T00:17:16;2.10;;;1.70;;
77602;SDS011;66771;52.434;17.056;2023-04-25T00:19:43;2.00;;;1.60;;
77602;SDS011;66771;52.434;17.056;2023-04-25T00:22:12;2.20;;;1.70;;
77602;SDS011;66771;52.434;17.056;2023-04-25T00:24:43;1.70;;;1.50;;
77602;SDS011;66771;52.434;17.056;2023-04-25T00:27:10;1.80;;;1.40;;
77602;SDS011;66771;52.434;17.056;2023-04-25T00:29:37;1.60;;;1.40;;
77602;SDS011;66771;52.434;17.056;2023-04-25T00:32:04;2.30;;;1.60;;
77602;SDS011;66771;52.434;17.056;2023-04-25T00:34:32;2.50;;;1.60;;
77602;SDS011;66771;52.434;17.056;2023-04-25T00:36:59;1.40;;;1.20;;
77602;SDS011;66771;52.434;17.056;2023-04-25T00:39:33;2.50;;;1.70;;
77602;SDS011;66771;52.434;17.056;2023-04-25T00:42:01;2.50;;;1.50;;
77602;SDS011;66771;52.434;17.056;2023-04-25T00:47:08;3.80;;;1.60;;
77602;SDS011;66771;52.434;17.056;2023-04-25T00:49:38;1.50;;;1.40;;
77602;SDS011;66771;52.434;17.056;2023-04-25T00:52:05;2.10;;;1.40;;
77602;SDS011;66771;52.434;17.056;2023-04-25T00:54:34;5.70;;;2.00;;
77602;SDS011;66771;52.434;17.056;2023-04-25T00:57:04;2.60;;;1.70;;
77602;SDS011;66771;52.434;17.056;2023-04-25T00:59:31;2.00;;;1.50;;
77602;SDS011;66771;52.434;17.056;2023-04-25T01:02:01;2.00;;;1.80;;
77602;SDS011;66771;52.434;17.056;2023-04-25T01:04:33;4.70;;;1.50;;
77602;SDS011;66771;52.434;17.056;2023-04-25T01:06:59;2.70;;;1.50;;
77602;SDS011;66771;52.434;17.056;2023-04-25T01:09:26;1.60;;;1.50;;
77602;SDS011;66771;52.434;17.056;2023-04-25T01:11:53;3.20;;;2.00;;
77602;SDS011;66771;52.434;17.056;2023-04-25T01:14:21;2.50;;;2.30;;
77602;SDS011;66771;52.434;17.056;2023-04-25T01:16:47;4.30;;;2.20;;
77602;SDS011;66771;52.434;17.056;2023-04-25T01:19:16;4.20;;;2.00;;
77602;SDS011;66771;52.434;17.056;2023-04-25T01:21:46;3.50;;;2.10;;
77602;SDS011;66771;52.434;17.056;2023-04-25T01:24:13;2.10;;;1.90;;
77602;SDS011;66771;52.434;17.056;2023-04-25T01:26:41;3.10;;;2.30;;
77602;SDS011;66771;52.434;17.056;2023-04-25T01:29:17;3.00;;;2.40;;
77602;SDS011;66771;52.434;17.056;2023-04-25T01:31:47;3.60;;;2.30;;
77602;SDS011;66771;52.434;17.056;2023-04-25T01:34:14;3.40;;;2.20;;
77602;SDS011;66771;52.434;17.056;2023-04-25T01:36:41;2.80;;;2.20;;
77602;SDS011;66771;52.434;17.056;2023-04-25T01:39:08;2.50;;;2.00;;
77602;SDS011;66771;52.434;17.056;2023-04-25T01:41:35;5.50;;;2.10;;
77602;SDS011;66771;52.434;17.056;2023-04-25T01:44:03;2.60;;;2.10;;
77602;SDS011;66771;52.434;17.056;2023-04-25T01:46:30;2.10;;;1.70;;
77602;SDS011;66771;52.434;17.056;2023-04-25T01:48:56;3.40;;;2.00;;
77602;SDS011;66771;52.434;17.056;2023-04-25T01:51:23;3.90;;;2.30;;
77602;SDS011;66771;52.434;17.056;2023-04-25T01:53:50;5.60;;;2.10;;
77602;SDS011;66771;52.434;17.056;2023-04-25T01:56:17;3.00;;;2.30;;
77602;SDS011;66771;52.434;17.056;2023-04-25T01:58:45;2.50;;;1.80;;
77602;SDS011;66771;52.434;17.056;2023-04-25T02:01:44;4.40;;;1.90;;
77602;SDS011;66771;52.434;17.056;2023-04-25T02:04:16;2.90;;;1.80;;
77602;SDS011;66771;52.434;17.056;2023-04-25T02:06:44;4.70;;;1.90;;
77602;SDS011;66771;52.434;17.056;2023-04-25T02:09:10;3.50;;;2.00;;
77602;SDS011;66771;52.434;17.056;2023-04-25T02:11:42;7.30;;;2.10;;
77602;SDS011;66771;52.434;17.056;2023-04-25T02:14:26;2.30;;;2.10;;
77602;SDS011;66771;52.434;17.056;2023-04-25T02:17:02;2.60;;;2.00;;
77602;SDS011;66771;52.434;17.056;2023-04-25T02:19:30;4.90;;;2.00;;
77602;SDS011;66771;52.434;17.056;2023-04-25T02:21:57;3.20;;;1.80;;
77602;SDS011;66771;52.434;17.056;2023-04-25T02:24:24;1.90;;;1.80;;
77602;SDS011;66771;52.434;17.056;2023-04-25T02:26:51;4.30;;;2.10;;
77602;SDS011;66771;52.434;17.056;2023-04-25T02:29:19;5.60;;;2.20;;
77602;SDS011;66771;52.434;17.056;2023-04-25T02:31:45;2.80;;;2.20;;
77602;SDS011;66771;52.434;17.056;2023-04-25T02:34:12;5.70;;;2.60;;
77602;SDS011;66771;52.434;17.056;2023-04-25T02:36:39;4.10;;;2.40;;
77602;SDS011;66771;52.434;17.056;2023-04-25T02:39:05;4.40;;;2.40;;
77602;SDS011;66771;52.434;17.056;2023-04-25T02:41:32;3.90;;;2.50;;
77602;SDS011;66771;52.434;17.056;2023-04-25T02:43:59;4.60;;;2.20;;
77602;SDS011;66771;52.434;17.056;2023-04-25T02:46:26;5.20;;;2.20;;
77602;SDS011;66771;52.434;17.056;2023-04-25T02:48:53;5.20;;;2.80;;
77602;SDS011;66771;52.434;17.056;2023-04-25T02:51:19;6.30;;;2.70;;
77602;SDS011;66771;52.434;17.056;2023-04-25T02:53:46;3.80;;;2.30;;
77602;SDS011;66771;52.434;17.056;2023-04-25T02:56:13;3.40;;;2.60;;
77602;SDS011;66771;52.434;17.056;2023-04-25T02:58:39;4.30;;;2.70;;
77602;SDS011;66771;52.434;17.056;2023-04-25T03:01:06;2.50;;;2.30;;
77602;SDS011;66771;52.434;17.056;2023-04-25T03:03:33;3.60;;;2.60;;
77602;SDS011;66771;52.434;17.056;2023-04-25T03:06:00;3.40;;;2.70;;
77602;SDS011;66771;52.434;17.056;2023-04-25T03:08:29;3.20;;;2.90;;
77602;SDS011;66771;52.434;17.056;2023-04-25T03:10:59;3.80;;;2.80;;
77602;SDS011;66771;52.434;17.056;2023-04-25T03:13:26;7.30;;;2.90;;
77602;SDS011;66771;52.434;17.056;2023-04-25T03:15:54;9.80;;;3.50;;
77602;SDS011;66771;52.434;17.056;2023-04-25T03:18:20;3.50;;;3.00;;
77602;SDS011;66771;52.434;17.056;2023-04-25T03:20:47;4.30;;;3.10;;
77602;SDS011;66771;52.434;17.056;2023-04-25T03:23:13;4.80;;;3.00;;
77602;SDS011;66771;52.434;17.056;2023-04-25T03:25:42;4.00;;;2.80;;
77602;SDS011;66771;52.434;17.056;2023-04-25T03:28:09;5.80;;;3.80;;
77602;SDS011;66771;52.434;17.056;2023-04-25T03:30:36;4.50;;;3.40;;
77602;SDS011;66771;52.434;17.056;2023-04-25T03:33:03;5.80;;;3.50;;
77602;SDS011;66771;52.434;17.056;2023-04-25T03:35:29;4.40;;;3.00;;
77602;SDS011;66771;52.434;17.056;2023-04-25T03:37:57;4.60;;;3.30;;
77602;SDS011;66771;52.434;17.056;2023-04-25T03:40:27;6.70;;;3.60;;
77602;SDS011;66771;52.434;17.056;2023-04-25T03:43:17;4.20;;;2.90;;
77602;SDS011;66771;52.434;17.056;2023-04-25T03:45:49;4.10;;;3.40;;
77602;SDS011;66771;52.434;17.056;2023-04-25T03:48:18;4.30;;;3.20;;
77602;SDS011;66771;52.434;17.056;2023-04-25T03:50:47;5.50;;;4.20;;
77602;SDS011;66771;52.434;17.056;2023-04-25T03:53:14;4.00;;;3.20;;
77602;SDS011;66771;52.434;17.056;2023-04-25T03:56:00;5.50;;;3.40;;
77602;SDS011;66771;52.434;17.056;2023-04-25T03:58:26;5.70;;;3.70;;
77602;SDS011;66771;52.434;17.056;2023-04-25T04:00:54;6.40;;;4.20;;
77602;SDS011;66771;52.434;17.056;2023-04-25T04:03:21;5.50;;;3.50;;
77602;SDS011;66771;52.434;17.056;2023-04-25T04:05:47;7.10;;;3.90;;
77602;SDS011;66771;52.434;17.056;2023-04-25T04:08:15;5.90;;;3.60;;
77602;SDS011;66771;52.434;17.056;2023-04-25T04:10:42;4.20;;;3.80;;
77602;SDS011;66771;52.434;17.056;2023-04-25T04:13:09;6.20;;;4.40;;
77602;SDS011;66771;52.434;17.056;2023-04-25T04:15:36;6.00;;;3.20;;
77602;SDS011;66771;52.434;17.056;2023-04-25T04:18:02;7.30;;;3.70;;
77602;SDS011;66771;52.434;17.056;2023-04-25T04:20:29;4.80;;;4.30;;
77602;SDS011;66771;52.434;17.056;2023-04-25T04:22:57;5.30;;;4.50;;
77602;SDS011;66771;52.434;17.056;2023-04-25T04:25:24;5.40;;;4.20;;
77602;SDS011;66771;52.434;17.056;2023-04-25T04:28:13;5.50;;;4.40;;
77602;SDS011;66771;52.434;17.056;2023-04-25T04:30:52;6.10;;;4.10;;
77602;SDS011;66771;52.434;17.056;2023-04-25T04:33:19;6.40;;;4.70;;
77602;SDS011;66771;52.434;17.056;2023-04-25T04:35:47;4.60;;;4.10;;
77602;SDS011;66771;52.434;17.056;2023-04-25T04:38:15;9.80;;;5.00;;
77602;SDS011;66771;52.434;17.056;2023-04-25T04:40:42;6.70;;;4.90;;
77602;SDS011;66771;52.434;17.056;2023-04-25T04:43:18;9.00;;;5.00;;
77602;SDS011;66771;52.434;17.056;2023-04-25T04:45:53;10.10;;;4.70;;
77602;SDS011;66771;52.434;17.056;2023-04-25T04:48:41;5.90;;;4.40;;
77602;SDS011;66771;52.434;17.056;2023-04-25T04:51:37;7.30;;;4.60;;
77602;SDS011;66771;52.434;17.056;2023-04-25T04:54:23;7.80;;;4.60;;
77602;SDS011;66771;52.434;17.056;2023-04-25T04:57:08;7.10;;;4.70;;
77602;SDS011;66771;52.434;17.056;2023-04-25T04:59:56;5.20;;;4.70;;
77602;SDS011;66771;52.434;17.056;2023-04-25T05:02:43;6.50;;;4.60;;
77602;SDS011;66771;52.434;17.056;2023-04-25T05:05:27;10.00;;;5.00;;
77602;SDS011;66771;52.434;17.056;2023-04-25T05:08:14;10.00;;;4.20;;
77602;SDS011;66771;52.434;17.056;2023-04-25T05:10:44;7.30;;;4.80;;
77602;SDS011;66771;52.434;17.056;2023-04-25T05:13:30;5.70;;;5.10;;
77602;SDS011;66771;52.434;17.056;2023-04-25T05:16:11;6.90;;;4.90;;
77602;SDS011;66771;52.434;17.056;2023-04-25T05:18:52;6.20;;;4.80;;
77602;SDS011;66771;52.434;17.056;2023-04-25T05:21:42;9.60;;;5.20;;
77602;SDS011;66771;52.434;17.056;2023-04-25T05:24:19;7.80;;;5.60;;
77602;SDS011;66771;52.434;17.056;2023-04-25T05:27:09;9.20;;;5.60;;
77602;SDS011;66771;52.434;17.056;2023-04-25T05:29:59;10.60;;;7.10;;
77602;SDS011;66771;52.434;17.056;2023-04-25T05:32:35;8.20;;;6.30;;
77602;SDS011;66771;52.434;17.056;2023-04-25T05:35:02;9.50;;;5.00;;
77602;SDS011;66771;52.434;17.056;2023-04-25T05:37:35;6.80;;;4.70;;
77602;SDS011;66771;52.434;17.056;2023-04-25T05:40:09;7.20;;;4.60;;
77602;SDS011;66771;52.434;17.056;2023-04-25T05:42:37;8.40;;;4.30;;
77602;SDS011;66771;52.434;17.056;2023-04-25T05:45:27;8.60;;;4.60;;
77602;SDS011;66771;52.434;17.056;2023-04-25T05:48:12;5.20;;;4.30;;
77602;SDS011;66771;52.434;17.056;2023-04-25T05:51:01;5.10;;;4.10;;
77602;SDS011;66771;52.434;17.056;2023-04-25T05:53:54;7.20;;;4.30;;
77602;SDS011;66771;52.434;17.056;2023-04-25T05:56:21;5.70;;;4.10;;
77602;SDS011;66771;52.434;17.056;2023-04-25T05:58:52;7.80;;;5.00;;
77602;SDS011;66771;52.434;17.056;2023-04-25T06:01:19;6.50;;;4.00;;
77602;SDS011;66771;52.434;17.056;2023-04-25T06:03:45;4.70;;;3.90;;
77602;SDS011;66771;52.434;17.056;2023-04-25T06:06:12;6.40;;;4.50;;
77602;SDS011;66771;52.434;17.056;2023-04-25T06:08:39;5.20;;;4.10;;
77602;SDS011;66771;52.434;17.056;2023-04-25T06:11:06;7.80;;;4.40;;
77602;SDS011;66771;52.434;17.056;2023-04-25T06:13:33;7.90;;;4.40;;
77602;SDS011;66771;52.434;17.056;2023-04-25T06:16:00;8.70;;;4.80;;
77602;SDS011;66771;52.434;17.056;2023-04-25T06:18:27;5.50;;;4.30;;
77602;SDS011;66771;52.434;17.056;2023-04-25T06:20:54;5.10;;;3.90;;
77602;SDS011;66771;52.434;17.056;2023-04-25T06:23:21;8.50;;;4.20;;
77602;SDS011;66771;52.434;17.056;2023-04-25T06:25:59;7.30;;;4.20;;
77602;SDS011;66771;52.434;17.056;2023-04-25T06:28:26;7.70;;;4.30;;
77602;SDS011;66771;52.434;17.056;2023-04-25T06:30:53;7.40;;;4.40;;
77602;SDS011;66771;52.434;17.056;2023-04-25T06:33:20;10.10;;;4.10;;
77602;SDS011;66771;52.434;17.056;2023-04-25T06:35:47;8.60;;;3.50;;
77602;SDS011;66771;52.434;17.056;2023-04-25T06:38:16;8.10;;;4.20;;
77602;SDS011;66771;52.434;17.056;2023-04-25T06:40:46;6.30;;;3.80;;
77602;SDS011;66771;52.434;17.056;2023-04-25T06:43:13;6.80;;;3.90;;
77602;SDS011;66771;52.434;17.056;2023-04-25T06:45:57;10.30;;;4.10;;
77602;SDS011;66771;52.434;17.056;2023-04-25T06:48:26;10.80;;;4.40;;
77602;SDS011;66771;52.434;17.056;2023-04-25T06:50:53;7.70;;;3.90;;
77602;SDS011;66771;52.434;17.056;2023-04-25T06:53:20;8.70;;;4.40;;
77602;SDS011;66771;52.434;17.056;2023-04-25T06:55:51;6.80;;;3.90;;
77602;SDS011;66771;52.434;17.056;2023-04-25T06:58:20;7.00;;;4.70;;
77602;SDS011;66771;52.434;17.056;2023-04-25T07:00:53;5.90;;;4.00;;
77602;SDS011;66771;52.434;17.056;2023-04-25T07:03:22;8.50;;;3.90;;
77602;SDS011;66771;52.434;17.056;2023-04-25T07:05:49;7.00;;;3.80;;
77602;SDS011;66771;52.434;17.056;2023-04-25T07:08:17;7.60;;;3.40;;
77602;SDS011;66771;52.434;17.056;2023-04-25T07:10:44;7.80;;;3.80;;
77602;SDS011;66771;52.434;17.056;2023-04-25T07:13:12;6.80;;;3.70;;
77602;SDS011;66771;52.434;17.056;2023-04-25T07:15:39;6.00;;;3.60;;
77602;SDS011;66771;52.434;17.056;2023-04-25T07:18:06;7.50;;;3.60;;
77602;SDS011;66771;52.434;17.056;2023-04-25T07:20:32;8.90;;;3.60;;
77602;SDS011;66771;52.434;17.056;2023-04-25T07:22:59;6.50;;;3.70;;
77602;SDS011;66771;52.434;17.056;2023-04-25T07:25:26;9.80;;;3.70;;
77602;SDS011;66771;52.434;17.056;2023-04-25T07:27:53;6.90;;;3.90;;
77602;SDS011;66771;52.434;17.056;2023-04-25T07:30:21;8.20;;;4.60;;
77602;SDS011;66771;52.434;17.056;2023-04-25T07:32:49;7.70;;;3.90;;
77602;SDS011;66771;52.434;17.056;2023-04-25T07:35:17;7.00;;;3.60;;
77602;SDS011;66771;52.434;17.056;2023-04-25T07:37:43;9.70;;;4.40;;
77602;SDS011;66771;52.434;17.056;2023-04-25T07:40:15;8.40;;;4.00;;
77602;SDS011;66771;52.434;17.056;2023-04-25T07:42:46;8.10;;;3.90;;
77602;SDS011;66771;52.434;17.056;2023-04-25T07:45:16;6.30;;;3.70;;
77602;SDS011;66771;52.434;17.056;2023-04-25T07:47:43;8.90;;;3.90;;
77602;SDS011;66771;52.434;17.056;2023-04-25T07:50:11;5.10;;;3.60;;
77602;SDS011;66771;52.434;17.056;2023-04-25T07:52:38;6.60;;;4.40;;
77602;SDS011;66771;52.434;17.056;2023-04-25T07:55:19;7.80;;;3.50;;
77602;SDS011;66771;52.434;17.056;2023-04-25T07:58:09;6.80;;;4.10;;
77602;SDS011;66771;52.434;17.056;2023-04-25T08:00:38;8.10;;;3.90;;
77602;SDS011;66771;52.434;17.056;2023-04-25T08:03:37;9.60;;;4.50;;
77602;SDS011;66771;52.434;17.056;2023-04-25T08:06:08;5.80;;;3.50;;
77602;SDS011;66771;52.434;17.056;2023-04-25T08:08:42;10.80;;;4.40;;
77602;SDS011;66771;52.434;17.056;2023-04-25T08:11:09;7.10;;;4.30;;
77602;SDS011;66771;52.434;17.056;2023-04-25T08:13:36;7.90;;;4.10;;
77602;SDS011;66771;52.434;17.056;2023-04-25T08:16:03;6.30;;;3.90;;
77602;SDS011;66771;52.434;17.056;2023-04-25T08:18:30;5.80;;;3.70;;
77602;SDS011;66771;52.434;17.056;2023-04-25T08:20:57;7.70;;;3.60;;
77602;SDS011;66771;52.434;17.056;2023-04-25T08:23:25;5.80;;;3.20;;
77602;SDS011;66771;52.434;17.056;2023-04-25T08:26:00;8.20;;;4.50;;
77602;SDS011;66771;52.434;17.056;2023-04-25T08:28:27;6.20;;;3.50;;
77602;SDS011;66771;52.434;17.056;2023-04-25T08:30:55;9.80;;;3.70;;
77602;SDS011;66771;52.434;17.056;2023-04-25T08:33:21;7.70;;;4.40;;
77602;SDS011;66771;52.434;17.056;2023-04-25T08:36:02;8.30;;;3.90;;
77602;SDS011;66771;52.434;17.056;2023-04-25T08:38:29;5.30;;;3.50;;
77602;SDS011;66771;52.434;17.056;2023-04-25T08:40:57;5.90;;;3.40;;
77602;SDS011;66771;52.434;17.056;2023-04-25T08:43:27;5.20;;;3.50;;
77602;SDS011;66771;52.434;17.056;2023-04-25T08:45:58;7.60;;;3.80;;
77602;SDS011;66771;52.434;17.056;2023-04-25T08:48:52;5.60;;;3.00;;
77602;SDS011;66771;52.434;17.056;2023-04-25T08:51:21;5.60;;;3.30;;
77602;SDS011;66771;52.434;17.056;2023-04-25T08:53:51;9.30;;;3.00;;
77602;SDS011;66771;52.434;17.056;2023-04-25T08:56:19;6.20;;;3.60;;
77602;SDS011;66771;52.434;17.056;2023-04-25T08:58:49;5.60;;;3.00;;
77602;SDS011;66771;52.434;17.056;2023-04-25T09:01:18;7.70;;;3.80;;
77602;SDS011;66771;52.434;17.056;2023-04-25T09:03:49;6.50;;;3.50;;
77602;SDS011;66771;52.434;17.056;2023-04-25T09:06:17;9.20;;;3.90;;
77602;SDS011;66771;52.434;17.056;2023-04-25T09:08:46;9.20;;;3.90;;
77602;SDS011;66771;52.434;17.056;2023-04-25T09:11:13;8.40;;;4.30;;
77602;SDS011;66771;52.434;17.056;2023-04-25T09:13:41;7.10;;;3.60;;
77602;SDS011;66771;52.434;17.056;2023-04-25T09:16:26;6.80;;;4.70;;
77602;SDS011;66771;52.434;17.056;2023-04-25T09:19:23;8.80;;;3.50;;
77602;SDS011;66771;52.434;17.056;2023-04-25T09:21:56;9.60;;;2.90;;
77602;SDS011;66771;52.434;17.056;2023-04-25T09:24:34;5.30;;;3.50;;
77602;SDS011;66771;52.434;17.056;2023-04-25T09:27:05;8.20;;;4.70;;
77602;SDS011;66771;52.434;17.056;2023-04-25T09:29:33;9.10;;;4.00;;
77602;SDS011;66771;52.434;17.056;2023-04-25T09:32:19;4.60;;;3.70;;
77602;SDS011;66771;52.434;17.056;2023-04-25T09:34:48;12.70;;;4.40;;
77602;SDS011;66771;52.434;17.056;2023-04-25T09:37:25;6.50;;;4.20;;
77602;SDS011;66771;52.434;17.056;2023-04-25T09:40:23;8.90;;;4.40;;
77602;SDS011;66771;52.434;17.056;2023-04-25T09:42:59;6.10;;;4.00;;
77602;SDS011;66771;52.434;17.056;2023-04-25T09:45:26;4.50;;;3.40;;
77602;SDS011;66771;52.434;17.056;2023-04-25T09:47:59;6.00;;;3.30;;
77602;SDS011;66771;52.434;17.056;2023-04-25T09:50:34;8.60;;;3.40;;
77602;SDS011;66771;52.434;17.056;2023-04-25T09:53:06;6.10;;;3.60;;
77602;SDS011;66771;52.434;17.056;2023-04-25T09:55:56;5.00;;;3.20;;
77602;SDS011;66771;52.434;17.056;2023-04-25T09:58:26;5.20;;;3.20;;
77602;SDS011;66771;52.434;17.056;2023-04-25T10:01:00;3.70;;;3.00;;
77602;SDS011;66771;52.434;17.056;2023-04-25T10:03:30;3.90;;;2.70;;
77602;SDS011;66771;52.434;17.056;2023-04-25T10:06:19;7.70;;;2.70;;
77602;SDS011;66771;52.434;17.056;2023-04-25T10:08:50;4.30;;;2.90;;
77602;SDS011;66771;52.434;17.056;2023-04-25T10:11:17;4.00;;;3.30;;
77602;SDS011;66771;52.434;17.056;2023-04-25T10:13:44;6.70;;;3.60;;
77602;SDS011;66771;52.434;17.056;2023-04-25T10:16:12;4.60;;;2.60;;
77602;SDS011;66771;52.434;17.056;2023-04-25T10:18:39;6.50;;;2.70;;
77602;SDS011;66771;52.434;17.056;2023-04-25T10:21:06;4.00;;;3.20;;
77602;SDS011;66771;52.434;17.056;2023-04-25T10:23:33;7.60;;;3.20;;
77602;SDS011;66771;52.434;17.056;2023-04-25T10:26:01;5.20;;;3.10;;
77602;SDS011;66771;52.434;17.056;2023-04-25T10:28:28;4.10;;;2.80;;
77602;SDS011;66771;52.434;17.056;2023-04-25T10:33:32;7.80;;;3.20;;
77602;SDS011;66771;52.434;17.056;2023-04-25T10:36:12;5.40;;;3.30;;
77602;SDS011;66771;52.434;17.056;2023-04-25T10:38:44;7.30;;;2.80;;
77602;SDS011;66771;52.434;17.056;2023-04-25T10:41:13;3.80;;;3.00;;
77602;SDS011;66771;52.434;17.056;2023-04-25T10:43:44;3.40;;;2.50;;
77602;SDS011;66771;52.434;17.056;2023-04-25T10:46:19;3.70;;;3.00;;
77602;SDS011;66771;52.434;17.056;2023-04-25T10:51:28;7.60;;;2.90;;
77602;SDS011;66771;52.434;17.056;2023-04-25T10:53:59;4.60;;;2.70;;
77602;SDS011;66771;52.434;17.056;2023-04-25T10:56:31;7.30;;;2.90;;
77602;SDS011;66771;52.434;17.056;2023-04-25T11:01:51;8.70;;;2.50;;
77602;SDS011;66771;52.434;17.056;2023-04-25T11:09:23;3.70;;;2.40;;
77602;SDS011;66771;52.434;17.056;2023-04-25T11:11:54;4.50;;;2.30;;
77602;SDS011;66771;52.434;17.056;2023-04-25T11:14:22;5.50;;;2.50;;
77602;SDS011;66771;52.434;17.056;2023-04-25T11:16:58;5.00;;;2.50;;
77602;SDS011;66771;52.434;17.056;2023-04-25T11:19:26;4.70;;;2.60;;
77602;SDS011;66771;52.434;17.056;2023-04-25T11:21:56;5.30;;;2.60;;
77602;SDS011;66771;52.434;17.056;2023-04-25T11:24:28;8.40;;;3.10;;
77602;SDS011;66771;52.434;17.056;2023-04-25T11:27:00;5.20;;;2.70;;
77602;SDS011;66771;52.434;17.056;2023-04-25T11:29:32;4.50;;;2.60;;
77602;SDS011;66771;52.434;17.056;2023-04-25T11:32:01;4.70;;;3.20;;
77602;SDS011;66771;52.434;17.056;2023-04-25T11:34:28;3.70;;;3.00;;
77602;SDS011;66771;52.434;17.056;2023-04-25T11:36:57;8.60;;;2.90;;
77602;SDS011;66771;52.434;17.056;2023-04-25T11:39:24;5.20;;;2.20;;
77602;SDS011;66771;52.434;17.056;2023-04-25T11:41:52;5.70;;;1.90;;
77602;SDS011;66771;52.434;17.056;2023-04-25T11:44:20;3.70;;;2.40;;
77602;SDS011;66771;52.434;17.056;2023-04-25T11:46:47;3.70;;;2.30;;
77602;SDS011;66771;52.434;17.056;2023-04-25T11:49:15;2.10;;;1.60;;
77602;SDS011;66771;52.434;17.056;2023-04-25T11:51:44;2.80;;;1.80;;
77602;SDS011;66771;52.434;17.056;2023-04-25T11:54:12;4.50;;;2.30;;
77602;SDS011;66771;52.434;17.056;2023-04-25T11:56:40;1.90;;;1.50;;
77602;SDS011;66771;52.434;17.056;2023-04-25T11:59:08;4.10;;;2.40;;
77602;SDS011;66771;52.434;17.056;2023-04-25T12:01:36;4.10;;;2.00;;
77602;SDS011;66771;52.434;17.056;2023-04-25T12:04:23;5.70;;;2.20;;
77602;SDS011;66771;52.434;17.056;2023-04-25T12:06:53;4.20;;;2.50;;
77602;SDS011;66771;52.434;17.056;2023-04-25T12:09:27;4.80;;;2.50;;
77602;SDS011;66771;52.434;17.056;2023-04-25T12:11:56;5.00;;;2.40;;
77602;SDS011;66771;52.434;17.056;2023-04-25T12:14:28;5.60;;;2.80;;
77602;SDS011;66771;52.434;17.056;2023-04-25T12:17:00;5.30;;;2.40;;
77602;SDS011;66771;52.434;17.056;2023-04-25T12:19:32;7.40;;;2.70;;
77602;SDS011;66771;52.434;17.056;2023-04-25T12:22:00;5.20;;;2.40;;
77602;SDS011;66771;52.434;17.056;2023-04-25T12:24:29;6.20;;;2.60;;
77602;SDS011;66771;52.434;17.056;2023-04-25T12:27:03;5.60;;;2.90;;
77602;SDS011;66771;52.434;17.056;2023-04-25T12:29:32;6.10;;;3.40;;
77602;SDS011;66771;52.434;17.056;2023-04-25T12:32:00;6.90;;;3.70;;
77602;SDS011;66771;52.434;17.056;2023-04-25T12:34:28;10.20;;;4.10;;
77602;SDS011;66771;52.434;17.056;2023-04-25T12:36:55;6.30;;;3.30;;
77602;SDS011;66771;52.434;17.056;2023-04-25T12:39:23;7.00;;;3.40;;
77602;SDS011;66771;52.434;17.056;2023-04-25T12:41:53;7.90;;;3.80;;
77602;SDS011;66771;52.434;17.056;2023-04-25T12:44:21;6.30;;;3.10;;
77602;SDS011;66771;52.434;17.056;2023-04-25T12:46:48;5.80;;;3.00;;
77602;SDS011;66771;52.434;17.056;2023-04-25T12:49:14;4.80;;;3.00;;
77602;SDS011;66771;52.434;17.056;2023-04-25T12:51:41;6.70;;;4.00;;
77602;SDS011;66771;52.434;17.056;2023-04-25T12:54:09;5.60;;;2.60;;
77602;SDS011;66771;52.434;17.056;2023-04-25T12:56:36;5.10;;;2.90;;
77602;SDS011;66771;52.434;17.056;2023-04-25T12:59:03;3.00;;;2.20;;
77602;SDS011;66771;52.434;17.056;2023-04-25T13:01:29;12.60;;;2.80;;
77602;SDS011;66771;52.434;17.056;2023-04-25T13:03:56;2.50;;;2.30;;
77602;SDS011;66771;52.434;17.056;2023-04-25T13:06:23;4.50;;;2.20;;
77602;SDS011;66771;52.434;17.056;2023-04-25T13:08:50;5.00;;;2.30;;
77602;SDS011;66771;52.434;17.056;2023-04-25T13:11:17;6.00;;;2.30;;
77602;SDS011;66771;52.434;17.056;2023-04-25T13:13:44;3.30;;;2.40;;
77602;SDS011;66771;52.434;17.056;2023-04-25T13:16:11;6.60;;;2.00;;
77602;SDS011;66771;52.434;17.056;2023-04-25T13:18:40;3.40;;;1.90;;
77602;SDS011;66771;52.434;17.056;2023-04-25T13:21:09;4.10;;;2.40;;
77602;SDS011;66771;52.434;17.056;2023-04-25T13:23:37;2.50;;;1.70;;
77602;SDS011;66771;52.434;17.056;2023-04-25T13:26:03;6.40;;;2.10;;
77602;SDS011;66771;52.434;17.056;2023-04-25T13:28:30;3.80;;;2.00;;
77602;SDS011;66771;52.434;17.056;2023-04-25T13:30:57;4.40;;;1.90;;
77602;SDS011;66771;52.434;17.056;2023-04-25T13:33:24;3.50;;;2.20;;
77602;SDS011;66771;52.434;17.056;2023-04-25T13:35:50;4.10;;;2.20;;
77602;SDS011;66771;52.434;17.056;2023-04-25T13:38:21;3.50;;;1.60;;
77602;SDS011;66771;52.434;17.056;2023-04-25T13:40:52;2.00;;;1.70;;
77602;SDS011;66771;52.434;17.056;2023-04-25T13:43:19;11.50;;;1.90;;
77602;SDS011;66771;52.434;17.056;2023-04-25T13:45:50;2.60;;;1.40;;
77602;SDS011;66771;52.434;17.056;2023-04-25T13:48:18;1.70;;;1.40;;
77602;SDS011;66771;52.434;17.056;2023-04-25T13:50:44;3.60;;;1.30;;
77602;SDS011;66771;52.434;17.056;2023-04-25T13:53:11;3.60;;;1.50;;
77602;SDS011;66771;52.434;17.056;2023-04-25T13:55:39;2.50;;;1.30;;
77602;SDS011;66771;52.434;17.056;2023-04-25T13:58:05;3.00;;;1.40;;
77602;SDS011;66771;52.434;17.056;2023-04-25T14:00:36;2.90;;;1.70;;
77602;SDS011;66771;52.434;17.056;2023-04-25T14:03:05;3.60;;;2.00;;
77602;SDS011;66771;52.434;17.056;2023-04-25T14:05:34;6.20;;;2.30;;
77602;SDS011;66771;52.434;17.056;2023-04-25T14:08:07;3.20;;;1.80;;
77602;SDS011;66771;52.434;17.056;2023-04-25T14:10:35;3.80;;;2.20;;
77602;SDS011;66771;52.434;17.056;2023-04-25T14:13:02;6.00;;;2.60;;
77602;SDS011;66771;52.434;17.056;2023-04-25T14:15:31;4.70;;;2.40;;
77602;SDS011;66771;52.434;17.056;2023-04-25T14:17:58;3.40;;;2.50;;
77602;SDS011;66771;52.434;17.056;2023-04-25T14:20:26;5.40;;;2.80;;
77602;SDS011;66771;52.434;17.056;2023-04-25T14:22:53;4.00;;;2.00;;
77602;SDS011;66771;52.434;17.056;2023-04-25T14:25:22;4.80;;;2.40;;
77602;SDS011;66771;52.434;17.056;2023-04-25T14:27:49;6.50;;;2.10;;
77602;SDS011;66771;52.434;17.056;2023-04-25T14:30:20;3.00;;;2.20;;
77602;SDS011;66771;52.434;17.056;2023-04-25T14:32:48;3.40;;;1.60;;
77602;SDS011;66771;52.434;17.056;2023-04-25T14:35:16;2.80;;;1.80;;
77602;SDS011;66771;52.434;17.056;2023-04-25T14:37:43;2.10;;;1.50;;
77602;SDS011;66771;52.434;17.056;2023-04-25T14:40:10;1.90;;;1.50;;
77602;SDS011;66771;52.434;17.056;2023-04-25T14:42:39;2.00;;;1.50;;
77602;SDS011;66771;52.434;17.056;2023-04-25T14:45:07;1.70;;;1.60;;
77602;SDS011;66771;52.434;17.056;2023-04-25T14:47:37;2.50;;;1.70;;
77602;SDS011;66771;52.434;17.056;2023-04-25T14:50:04;3.00;;;2.00;;
77602;SDS011;66771;52.434;17.056;2023-04-25T14:52:32;1.90;;;1.50;;
77602;SDS011;66771;52.434;17.056;2023-04-25T14:54:58;2.60;;;1.80;;
77602;SDS011;66771;52.434;17.056;2023-04-25T14:57:28;5.50;;;2.10;;
77602;SDS011;66771;52.434;17.056;2023-04-25T14:59:54;4.30;;;2.30;;
77602;SDS011;66771;52.434;17.056;2023-04-25T15:02:21;4.70;;;2.40;;
77602;SDS011;66771;52.434;17.056;2023-04-25T15:04:48;4.90;;;1.80;;
77602;SDS011;66771;52.434;17.056;2023-04-25T15:07:15;2.50;;;2.10;;
77602;SDS011;66771;52.434;17.056;2023-04-25T15:09:41;4.40;;;2.40;;